Summerwind — WDF3461 — position and weather

sailwx.info

Track history (hours):
 
Tides and Currents Weather Stations Pressure Air Temp Water Temp Dewpoint Dewpoint Depression Visibility Wind Speed Wind Dir Waves Ship Positions

Summerwind (United States)

Ship's website: http://www.usmma.edu/waterfront

More information available from US FCC via Universal Licensing System and Coast Guard Vessel Documentation Center.

Last reported at 2014-Aug-27 12:16 UTC. Time now 2014-Sep-18 15:39 UTC.
Position N 39°27' W 074°03'.
Warning: this ship's position is 22 days out of date.

Length 30 m.

Type: Sailing vessel. MMSI: 367440150.

Date/timePositionNaut miles runAvg speedWind from/ knotsBaromVisibWave heightAir tempDewpointWater temp
2014-Aug-27 12:16N 39°27' W 074°03'7 5.9
2014-Aug-27 11:08N 39°31' W 073°57'12 6.0
2014-Aug-27 09:09N 39°40' W 073°47'4 6.6
2014-Aug-27 08:33N 39°43' W 073°43'7 7.4
2014-Aug-27 07:33N 39°49' W 073°37'7 6.9
2014-Aug-27 06:33N 39°55' W 073°32'6 6.4
2014-Aug-27 05:33N 40°00' W 073°27'6 6.4
2014-Aug-27 04:33N 40°05' W 073°22'6 6.4
2014-Aug-27 03:34N 40°10' W 073°16'6 6.3
2014-Aug-27 02:33N 40°13' W 073°09'7 7.0
2014-Aug-27 01:33N 40°18' W 073°02'8 7.7
2014-Aug-27 00:33N 40°23' W 072°54'6 5.7
2014-Aug-26 23:33N 40°26' W 072°48'7 7.3
2014-Aug-26 22:32N 40°30' W 072°40'7 7.4
2014-Aug-26 21:33N 40°34' W 072°32'8 7.7
2014-Aug-26 20:33N 40°39' W 072°25'8 8.0
2014-Aug-26 19:34N 40°44' W 072°16'7 7.3
2014-Aug-26 18:33N 40°49' W 072°09'7 7.2
2014-Aug-26 17:33N 40°53' W 072°01'7 6.7
2014-Aug-26 16:33N 40°58' W 071°55'7 7.2
2014-Aug-26 15:33N 41°03' W 071°48'7 6.8
2014-Aug-26 14:33N 41°08' W 071°42'7 7.1
2014-Aug-26 13:33N 41°14' W 071°37'7 7.4
2014-Aug-26 12:33N 41°20' W 071°30'7 7.4
2014-Aug-26 11:33N 41°25' W 071°24'5 4.5
2014-Aug-26 10:32N 41°29' W 071°20'  
Track history (hours):
 
Tides and Currents Weather Stations Pressure Air Temp Water Temp Dewpoint Dewpoint Depression Visibility Wind Speed Wind Dir Waves Ship Positions

Summerwind (United States)

Ship's website: http://www.usmma.edu/waterfront

More information available from US FCC via Universal Licensing System and Coast Guard Vessel Documentation Center.

Last reported at 2014-Aug-27 12:16 UTC. Time now 2014-Sep-18 15:39 UTC.
Position N 39°27' W 074°03'.
Warning: this ship's position is 22 days out of date.

Length 30 m.

Type: Sailing vessel. MMSI: 367440150.

Date/timePositionNaut miles runAvg speedWind from/ knotsBaromVisibWave heightAir tempDewpointWater temp
2014-Aug-27 12:16N 39°27' W 074°03'7 5.9
2014-Aug-27 11:08N 39°31' W 073°57'12 6.0
2014-Aug-27 09:09N 39°40' W 073°47'4 6.6
2014-Aug-27 08:33N 39°43' W 073°43'7 7.4
2014-Aug-27 07:33N 39°49' W 073°37'7 6.9
2014-Aug-27 06:33N 39°55' W 073°32'6 6.4
2014-Aug-27 05:33N 40°00' W 073°27'6 6.4
2014-Aug-27 04:33N 40°05' W 073°22'6 6.4
2014-Aug-27 03:34N 40°10' W 073°16'6 6.3
2014-Aug-27 02:33N 40°13' W 073°09'7 7.0
2014-Aug-27 01:33N 40°18' W 073°02'8 7.7
2014-Aug-27 00:33N 40°23' W 072°54'6 5.7
2014-Aug-26 23:33N 40°26' W 072°48'7 7.3
2014-Aug-26 22:32N 40°30' W 072°40'7 7.4
2014-Aug-26 21:33N 40°34' W 072°32'8 7.7
2014-Aug-26 20:33N 40°39' W 072°25'8 8.0
2014-Aug-26 19:34N 40°44' W 072°16'7 7.3
2014-Aug-26 18:33N 40°49' W 072°09'7 7.2
2014-Aug-26 17:33N 40°53' W 072°01'7 6.7
2014-Aug-26 16:33N 40°58' W 071°55'7 7.2
2014-Aug-26 15:33N 41°03' W 071°48'7 6.8
2014-Aug-26 14:33N 41°08' W 071°42'7 7.1
2014-Aug-26 13:33N 41°14' W 071°37'7 7.4
2014-Aug-26 12:33N 41°20' W 071°30'7 7.4
2014-Aug-26 11:33N 41°25' W 071°24'5 4.5
2014-Aug-26 10:32N 41°29' W 071°20'  

Dump ship's entire track history